Time;durP1;ratioP1;P1;durP2;ratioP2;P2;SDS_P1;SDS_P2;PMS_P1;PMS_P2;Temp;Humidity;BMP_temperature;BMP_pressure;BME280_temperature;BME280_humidity;BME280_pressure;Samples;Min_cycle;Max_cycle;Signal;HPM_P1;HPM_P2
2023/05/10 00:00:20;;;;;;;18.88;14.10;;;12.50;99.90;;;;;;5025106;28;20800;-66
2023/05/10 00:02:47;;;;;;;21.52;14.77;;;12.40;99.90;;;;;;5034993;28;20505;-66
2023/05/10 00:05:13;;;;;;;21.33;14.95;;;12.40;99.90;;;;;;5031747;28;20427;-66
2023/05/10 00:07:40;;;;;;;22.92;15.00;;;12.40;99.90;;;;;;5048003;28;20424;-66
2023/05/10 00:10:08;;;;;;;23.15;15.60;;;12.40;99.90;;;;;;5034297;28;20433;-67
2023/05/10 00:12:34;;;;;;;25.95;16.70;;;12.40;99.90;;;;;;5039692;28;20681;-66
2023/05/10 00:15:03;;;;;;;24.75;15.65;;;12.40;99.90;;;;;;5031543;28;20418;-67
2023/05/10 00:17:30;;;;;;;25.35;16.48;;;12.40;99.90;;;;;;5031810;28;20430;-67
2023/05/10 00:19:57;;;;;;;31.95;17.40;;;12.40;99.90;;;;;;5030878;28;20411;-67
2023/05/10 00:22:24;;;;;;;25.80;16.73;;;12.40;99.90;;;;;;5017485;28;20440;-67
2023/05/10 00:24:50;;;;;;;27.10;16.58;;;12.50;99.90;;;;;;5029991;28;20896;-68
2023/05/10 00:27:18;;;;;;;26.85;17.30;;;12.50;99.90;;;;;;5025943;28;20420;-67
2023/05/10 00:29:45;;;;;;;27.73;17.33;;;12.50;99.90;;;;;;5023447;28;20432;-65
2023/05/10 00:32:13;;;;;;;28.48;16.80;;;12.50;99.90;;;;;;5040844;28;20776;-67
2023/05/10 00:34:40;;;;;;;27.27;17.27;;;12.50;99.90;;;;;;5039220;28;20419;-67
2023/05/10 00:37:07;;;;;;;27.92;17.23;;;12.50;99.90;;;;;;5029599;28;20466;-67
2023/05/10 00:39:33;;;;;;;26.85;17.15;;;12.50;99.90;;;;;;5024422;28;20423;-67
2023/05/10 00:42:00;;;;;;;31.45;17.50;;;12.50;99.90;;;;;;5030833;28;20430;-67
2023/05/10 00:44:27;;;;;;;29.87;17.80;;;12.50;99.90;;;;;;5030893;28;20446;-66
2023/05/10 00:46:54;;;;;;;31.65;18.02;;;12.60;99.90;;;;;;5014873;28;20429;-66
2023/05/10 00:49:22;;;;;;;29.75;17.58;;;12.60;99.90;;;;;;5029447;28;20440;-67
2023/05/10 00:51:49;;;;;;;33.63;18.00;;;12.60;99.90;;;;;;5032639;28;20642;-67
2023/05/10 00:54:16;;;;;;;29.92;17.80;;;12.70;99.90;;;;;;5025811;28;20442;-66
2023/05/10 00:56:48;;;;;;;34.50;18.40;;;12.60;99.90;;;;;;5030583;28;20473;-66
2023/05/10 00:59:16;;;;;;;31.92;17.75;;;12.60;99.90;;;;;;5019590;28;20535;-68
2023/05/10 01:01:43;;;;;;;29.63;17.58;;;12.60;99.90;;;;;;5028287;28;20426;-68
2023/05/10 01:04:11;;;;;;;30.38;18.50;;;12.60;99.90;;;;;;5030515;28;20426;-67
2023/05/10 01:06:39;;;;;;;31.60;19.60;;;12.50;99.90;;;;;;5027769;28;20500;-68
2023/05/10 01:09:06;;;;;;;31.85;18.88;;;12.50;99.90;;;;;;5027094;28;20788;-68
2023/05/10 01:11:33;;;;;;;34.90;19.73;;;12.50;99.90;;;;;;5025992;28;20474;-67
2023/05/10 01:14:00;;;;;;;32.85;18.50;;;12.50;99.90;;;;;;5020701;28;20428;-67
2023/05/10 01:16:28;;;;;;;31.70;18.40;;;12.50;99.90;;;;;;5025302;28;20429;-67
2023/05/10 01:18:55;;;;;;;33.97;19.27;;;12.50;99.90;;;;;;5021782;28;20415;-66
2023/05/10 01:21:29;;;;;;;36.90;19.27;;;12.60;99.90;;;;;;5032695;28;20444;-67
2023/05/10 01:24:20;;;;;;;31.60;18.23;;;12.60;99.90;;;;;;5033703;28;20860;-67
2023/05/10 01:27:15;;;;;;;33.97;20.38;;;12.50;99.90;;;;;;5016277;28;20438;-67
2023/05/10 01:29:58;;;;;;;33.17;18.92;;;12.60;99.90;;;;;;5034299;28;20590;-66
2023/05/10 01:32:33;;;;;;;31.40;18.58;;;12.60;99.90;;;;;;5027868;28;20426;-67
2023/05/10 01:35:04;;;;;;;30.00;17.88;;;12.60;99.90;;;;;;5046964;28;20406;-67
2023/05/10 01:37:40;;;;;;;32.53;18.67;;;12.60;99.90;;;;;;5022360;28;20534;-66
2023/05/10 01:40:15;;;;;;;32.10;19.23;;;12.60;99.90;;;;;;5029808;28;20430;-67
2023/05/10 01:42:48;;;;;;;31.23;17.98;;;12.60;99.90;;;;;;5045773;28;20906;-67
2023/05/10 01:45:22;;;;;;;31.92;17.75;;;12.60;99.90;;;;;;5051862;28;20435;-66
2023/05/10 01:48:00;;;;;;;30.95;17.98;;;12.60;99.90;;;;;;5040466;28;20416;-66
2023/05/10 01:50:31;;;;;;;31.35;17.92;;;12.60;99.90;;;;;;5035413;28;20451;-68
2023/05/10 01:53:01;;;;;;;29.70;17.70;;;12.60;99.90;;;;;;5024200;28;21046;-67
2023/05/10 01:55:33;;;;;;;26.52;16.75;;;12.70;99.90;;;;;;5024851;28;20415;-68
2023/05/10 01:58:05;;;;;;;25.42;16.60;;;12.60;99.90;;;;;;5036017;28;20852;-67
2023/05/10 02:00:34;;;;;;;24.97;16.33;;;12.50;99.90;;;;;;5038230;28;20418;-68
2023/05/10 02:03:06;;;;;;;23.25;15.77;;;12.60;99.90;;;;;;5034963;28;20549;-67
2023/05/10 02:05:34;;;;;;;23.40;15.93;;;12.60;99.90;;;;;;5027844;28;20442;-67
2023/05/10 02:08:03;;;;;;;29.33;16.90;;;12.50;99.90;;;;;;5027313;28;20427;-67
2023/05/10 02:10:32;;;;;;;29.30;17.70;;;12.50;99.90;;;;;;5029345;28;20422;-67
2023/05/10 02:13:00;;;;;;;29.60;17.40;;;12.60;99.90;;;;;;5026708;28;20425;-67
2023/05/10 02:15:28;;;;;;;29.48;17.05;;;12.60;99.90;;;;;;5020748;28;20978;-67
2023/05/10 02:17:56;;;;;;;32.22;18.20;;;12.50;99.90;;;;;;5047213;28;20984;-66
2023/05/10 02:20:26;;;;;;;31.15;18.67;;;12.60;99.90;;;;;;5033632;28;20454;-67
2023/05/10 02:22:55;;;;;;;29.83;16.67;;;12.60;99.90;;;;;;5037541;28;20938;-66
2023/05/10 02:25:23;;;;;;;30.77;17.73;;;12.50;99.90;;;;;;5037437;28;20435;-67
2023/05/10 02:27:50;;;;;;;27.25;16.27;;;12.60;99.90;;;;;;5032936;28;20901;-67
2023/05/10 02:30:19;;;;;;;26.23;16.10;;;12.60;99.90;;;;;;5030875;28;20423;-67
2023/05/10 02:32:46;;;;;;;27.10;15.60;;;12.50;99.90;;;;;;5028084;28;20565;-68
2023/05/10 02:35:13;;;;;;;29.37;15.17;;;12.50;99.90;;;;;;5029260;28;20464;-67
2023/05/10 02:37:42;;;;;;;30.48;14.90;;;12.60;99.90;;;;;;5019710;28;20438;-67
2023/05/10 02:40:11;;;;;;;31.73;16.80;;;12.50;99.90;;;;;;5033031;28;20777;-66
2023/05/10 02:42:39;;;;;;;20.20;13.30;;;12.60;99.90;;;;;;5029765;28;20430;-66
2023/05/10 02:45:12;;;;;;;23.20;13.45;;;12.60;99.90;;;;;;5042241;28;20429;-66
2023/05/10 02:47:39;;;;;;;26.65;13.85;;;12.60;99.90;;;;;;5038640;28;20417;-67
2023/05/10 02:50:07;;;;;;;18.38;12.68;;;12.60;99.90;;;;;;5026010;28;20929;-67
2023/05/10 02:52:43;;;;;;;21.67;13.05;;;12.60;99.90;;;;;;5027799;28;20913;-66
2023/05/10 02:55:13;;;;;;;18.35;11.60;;;12.70;99.90;;;;;;5049909;28;20419;-67
2023/05/10 02:57:46;;;;;;;20.05;12.07;;;12.60;99.90;;;;;;5048267;28;20422;-68
2023/05/10 03:00:13;;;;;;;20.48;12.55;;;12.60;99.90;;;;;;5036512;28;20433;-66
2023/05/10 03:02:40;;;;;;;20.40;12.05;;;12.60;99.90;;;;;;5033827;28;20789;-68
2023/05/10 03:05:07;;;;;;;19.90;11.65;;;12.70;99.90;;;;;;5028953;28;20436;-67
2023/05/10 03:07:34;;;;;;;18.27;11.50;;;12.70;99.90;;;;;;5029388;28;20785;-67
2023/05/10 03:10:03;;;;;;;16.83;10.65;;;12.60;99.90;;;;;;5036265;28;20787;-68
2023/05/10 03:12:42;;;;;;;16.07;11.40;;;12.60;99.90;;;;;;5048800;28;20424;-67
2023/05/10 03:15:18;;;;;;;14.10;10.52;;;12.50;99.90;;;;;;5016963;28;20605;-68
2023/05/10 03:17:52;;;;;;;17.00;10.93;;;12.50;99.90;;;;;;5013961;28;20436;-67
2023/05/10 03:20:25;;;;;;;14.98;10.68;;;12.40;99.90;;;;;;5020159;28;20502;-68
2023/05/10 03:22:56;;;;;;;16.17;11.00;;;12.40;99.90;;;;;;5027617;28;20916;-67
2023/05/10 03:25:24;;;;;;;13.90;10.60;;;12.40;99.90;;;;;;5028704;28;20927;-67
2023/05/10 03:27:52;;;;;;;15.63;11.48;;;12.40;99.90;;;;;;5023651;28;20865;-68
2023/05/10 03:30:20;;;;;;;14.30;10.63;;;12.40;99.90;;;;;;5021862;28;20443;-67
2023/05/10 03:32:46;;;;;;;17.75;11.85;;;12.40;99.90;;;;;;5037536;28;20444;-67
2023/05/10 03:35:14;;;;;;;16.02;11.45;;;12.40;99.90;;;;;;5031321;28;20919;-67
2023/05/10 03:37:40;;;;;;;17.02;12.32;;;12.40;99.90;;;;;;5035826;28;20769;-68
2023/05/10 03:40:08;;;;;;;18.00;12.23;;;12.40;99.90;;;;;;5034101;28;20415;-69
2023/05/10 03:42:36;;;;;;;24.10;13.38;;;12.40;99.90;;;;;;5041629;28;20896;-68
2023/05/10 03:45:03;;;;;;;21.67;14.30;;;12.40;99.90;;;;;;5028413;28;20415;-69
2023/05/10 03:47:30;;;;;;;24.85;15.20;;;12.50;99.90;;;;;;5021716;28;20427;-69
2023/05/10 03:49:57;;;;;;;25.13;15.23;;;12.50;99.90;;;;;;5041101;28;20535;-67
2023/05/10 03:52:24;;;;;;;27.15;17.42;;;12.50;99.90;;;;;;5036225;28;20417;-67
2023/05/10 03:54:50;;;;;;;27.48;17.33;;;12.50;99.90;;;;;;5033696;28;20415;-67
2023/05/10 03:57:17;;;;;;;30.13;18.50;;;12.50;99.90;;;;;;5018780;28;21012;-66
2023/05/10 03:59:45;;;;;;;30.42;18.30;;;12.50;99.90;;;;;;5021798;28;20435;-67
2023/05/10 04:02:12;;;;;;;31.75;19.50;;;12.50;99.90;;;;;;5027046;28;20436;-66
2023/05/10 04:04:38;;;;;;;31.83;19.35;;;12.50;99.90;;;;;;5031724;28;20422;-66
2023/05/10 04:07:05;;;;;;;33.40;19.23;;;12.50;99.90;;;;;;5029655;28;20437;-66
2023/05/10 04:09:32;;;;;;;33.78;20.30;;;12.50;99.90;;;;;;5033666;28;20427;-66
2023/05/10 04:12:00;;;;;;;32.10;19.95;;;12.50;99.90;;;;;;5031959;28;20419;-67
2023/05/10 04:14:26;;;;;;;32.00;19.73;;;12.50;99.90;;;;;;5047363;28;21111;-66
2023/05/10 04:16:55;;;;;;;32.85;20.00;;;12.50;99.90;;;;;;5046309;28;20431;-67
2023/05/10 04:19:21;;;;;;;34.55;21.25;;;12.50;99.90;;;;;;5027446;28;20907;-67
2023/05/10 04:21:48;;;;;;;33.47;21.52;;;12.50;99.90;;;;;;5027838;28;20420;-69
2023/05/10 04:24:15;;;;;;;32.63;21.48;;;12.50;99.90;;;;;;5019078;28;20425;-67
2023/05/10 04:26:42;;;;;;;31.98;20.55;;;12.50;99.90;;;;;;5044845;28;20937;-67
2023/05/10 04:29:09;;;;;;;30.77;20.27;;;12.50;99.90;;;;;;5014785;28;20432;-67
2023/05/10 04:31:36;;;;;;;31.93;20.70;;;12.50;99.90;;;;;;5031569;28;20469;-67
2023/05/10 04:34:04;;;;;;;30.83;20.50;;;12.50;99.90;;;;;;5034961;28;20418;-67
2023/05/10 04:36:32;;;;;;;30.73;20.58;;;12.50;99.90;;;;;;5032675;28;20431;-68
2023/05/10 04:38:58;;;;;;;35.00;20.93;;;12.50;99.90;;;;;;5035703;28;20434;-67
2023/05/10 04:41:25;;;;;;;31.57;21.60;;;12.50;99.90;;;;;;5024567;28;20431;-71
2023/05/10 04:43:52;;;;;;;29.80;21.20;;;12.50;99.90;;;;;;5020237;28;20434;-68
2023/05/10 04:46:19;;;;;;;29.10;21.00;;;12.50;99.90;;;;;;5022996;28;20811;-68
2023/05/10 04:48:45;;;;;;;30.53;21.00;;;12.50;99.90;;;;;;5023880;28;20587;-69
2023/05/10 04:51:13;;;;;;;28.67;21.33;;;12.40;99.90;;;;;;5025486;28;20420;-68
2023/05/10 04:53:40;;;;;;;27.77;21.23;;;12.40;99.90;;;;;;5029151;28;20437;-67
2023/05/10 04:56:07;;;;;;;32.53;21.95;;;12.40;99.90;;;;;;5048922;28;20419;-67
2023/05/10 04:58:34;;;;;;;28.63;21.47;;;12.40;99.90;;;;;;5034878;28;20579;-67
2023/05/10 05:01:07;;;;;;;28.10;21.00;;;12.40;99.90;;;;;;5038653;28;20485;-69
2023/05/10 05:03:33;;;;;;;29.33;21.27;;;12.50;99.90;;;;;;5034960;28;20415;-67
2023/05/10 05:06:00;;;;;;;28.37;21.60;;;12.40;99.90;;;;;;5024577;28;20930;-67
2023/05/10 05:08:28;;;;;;;29.60;21.42;;;12.40;99.90;;;;;;5025814;28;20813;-67
2023/05/10 05:10:55;;;;;;;26.30;20.23;;;12.50;99.90;;;;;;5025436;28;20927;-67
2023/05/10 05:13:22;;;;;;;27.90;20.45;;;12.50;99.90;;;;;;5028742;28;20960;-67
2023/05/10 05:15:49;;;;;;;28.35;20.67;;;12.50;99.90;;;;;;5023780;28;20426;-67
2023/05/10 05:18:15;;;;;;;29.52;19.73;;;12.50;99.90;;;;;;5031990;28;20887;-67
2023/05/10 05:20:42;;;;;;;26.52;19.27;;;12.50;99.90;;;;;;5042271;28;20415;-67
2023/05/10 05:23:09;;;;;;;29.10;19.48;;;12.50;99.90;;;;;;5041329;28;20439;-66
2023/05/10 05:25:37;;;;;;;24.17;18.30;;;12.50;99.90;;;;;;5036344;28;20559;-66
2023/05/10 05:28:04;;;;;;;24.02;17.42;;;12.50;99.90;;;;;;5020200;28;20440;-67
2023/05/10 05:30:30;;;;;;;20.23;17.80;;;12.50;99.90;;;;;;5021766;28;20442;-67
2023/05/10 05:32:57;;;;;;;22.55;17.63;;;12.50;99.90;;;;;;5019662;28;20764;-66
2023/05/10 05:35:24;;;;;;;23.30;17.67;;;12.50;99.90;;;;;;5013221;28;20472;-66
2023/05/10 05:37:51;;;;;;;19.80;15.80;;;12.50;99.90;;;;;;5024199;28;20815;-68
2023/05/10 05:40:17;;;;;;;20.58;15.40;;;12.50;99.90;;;;;;5019047;28;20590;-66
2023/05/10 05:42:45;;;;;;;20.40;14.90;;;12.40;99.90;;;;;;5029407;28;20909;-66
2023/05/10 05:45:13;;;;;;;19.98;15.23;;;12.50;99.90;;;;;;5020543;28;20444;-65
2023/05/10 05:47:40;;;;;;;20.50;15.57;;;12.50;99.90;;;;;;5021443;28;20462;-66
2023/05/10 05:50:07;;;;;;;19.67;15.17;;;12.50;99.90;;;;;;5028951;28;20539;-65
2023/05/10 05:52:34;;;;;;;17.23;13.77;;;12.50;99.90;;;;;;5039741;28;20933;-67
2023/05/10 05:55:01;;;;;;;20.30;14.95;;;12.60;99.90;;;;;;5023551;28;20417;-66
2023/05/10 05:57:27;;;;;;;18.50;14.88;;;12.60;99.90;;;;;;5030212;28;20413;-66
2023/05/10 05:59:55;;;;;;;16.65;14.48;;;12.70;99.90;;;;;;5024114;28;20439;-66
2023/05/10 06:02:22;;;;;;;17.48;13.60;;;12.80;99.90;;;;;;5033380;28;20415;-65
2023/05/10 06:04:49;;;;;;;14.48;12.88;;;12.80;99.90;;;;;;5017186;28;20771;-65
2023/05/10 06:07:16;;;;;;;16.30;13.07;;;12.90;99.90;;;;;;5024202;28;20501;-65
2023/05/10 06:09:43;;;;;;;16.27;13.30;;;13.00;99.90;;;;;;5025021;28;20917;-66
2023/05/10 06:12:12;;;;;;;16.33;13.77;;;13.00;99.90;;;;;;5018647;28;20427;-65
2023/05/10 06:14:39;;;;;;;14.10;12.20;;;13.00;99.90;;;;;;5040437;28;20462;-65
2023/05/10 06:17:07;;;;;;;18.33;12.95;;;13.10;99.90;;;;;;5028186;28;20411;-65
2023/05/10 06:19:33;;;;;;;16.90;12.65;;;13.10;99.90;;;;;;5037672;28;20416;-66
2023/05/10 06:22:00;;;;;;;14.45;12.15;;;13.10;99.90;;;;;;5041557;28;20445;-65
2023/05/10 06:24:28;;;;;;;14.43;12.93;;;13.10;99.90;;;;;;5051048;28;20418;-66
2023/05/10 06:26:54;;;;;;;13.75;12.32;;;13.20;99.90;;;;;;5046911;28;20435;-66
2023/05/10 06:29:21;;;;;;;14.48;12.30;;;13.20;99.90;;;;;;5030107;28;20423;-66
2023/05/10 06:31:48;;;;;;;14.13;12.43;;;13.20;99.90;;;;;;5032966;28;20553;-67
2023/05/10 06:34:16;;;;;;;16.65;12.85;;;13.20;99.90;;;;;;5039020;28;20466;-66
2023/05/10 06:36:43;;;;;;;14.07;12.03;;;13.20;99.90;;;;;;5022109;28;20483;-66
2023/05/10 06:39:11;;;;;;;15.43;13.20;;;13.20;99.90;;;;;;5019712;28;20519;-66
2023/05/10 06:41:38;;;;;;;16.25;12.25;;;13.30;99.90;;;;;;5022989;28;20465;-66
2023/05/10 06:44:05;;;;;;;13.25;11.85;;;13.30;99.90;;;;;;5035096;28;20430;-66
2023/05/10 06:46:32;;;;;;;16.08;12.90;;;13.20;99.90;;;;;;5038980;28;20427;-66
2023/05/10 06:48:58;;;;;;;15.10;13.50;;;13.30;99.90;;;;;;5040034;28;20421;-66
2023/05/10 06:51:26;;;;;;;14.33;12.83;;;13.30;99.90;;;;;;5027851;28;20494;-66
2023/05/10 06:53:53;;;;;;;16.42;13.75;;;13.20;99.90;;;;;;5025263;28;20413;-66
2023/05/10 06:56:21;;;;;;;17.40;13.75;;;13.20;99.90;;;;;;5030838;28;20944;-66
2023/05/10 06:58:48;;;;;;;15.95;13.25;;;13.20;99.90;;;;;;5025985;28;20423;-66
2023/05/10 07:01:14;;;;;;;15.18;13.10;;;13.20;99.90;;;;;;5027219;28;20514;-66
2023/05/10 07:03:41;;;;;;;16.67;14.13;;;13.20;99.90;;;;;;5038695;28;20434;-66
2023/05/10 07:06:08;;;;;;;15.93;14.32;;;13.10;99.90;;;;;;5030633;28;20789;-66
2023/05/10 07:11:15;;;;;;;18.35;15.05;;;13.10;99.90;;;;;;5037268;28;20451;-71
2023/05/10 07:13:43;;;;;;;19.02;15.80;;;13.00;99.90;;;;;;5042201;28;20908;-72
2023/05/10 07:16:11;;;;;;;18.30;16.30;;;12.90;99.90;;;;;;5038638;28;20728;-70
2023/05/10 07:18:37;;;;;;;22.40;18.15;;;12.90;99.90;;;;;;5042763;28;20915;-70
2023/05/10 07:21:04;;;;;;;22.90;17.50;;;12.90;99.90;;;;;;5029113;28;20429;-70
2023/05/10 07:23:31;;;;;;;24.25;17.13;;;12.90;99.90;;;;;;5041380;28;20523;-70
2023/05/10 07:25:59;;;;;;;20.05;17.60;;;12.90;99.90;;;;;;5040242;28;20419;-70
2023/05/10 07:28:26;;;;;;;19.65;17.55;;;13.00;99.90;;;;;;5041483;28;20436;-70
2023/05/10 07:30:53;;;;;;;22.13;17.52;;;13.20;99.90;;;;;;5041575;28;20434;-70
2023/05/10 07:33:20;;;;;;;17.73;15.90;;;13.30;99.90;;;;;;5034725;28;20417;-71
2023/05/10 07:35:46;;;;;;;17.75;15.48;;;13.30;99.90;;;;;;5045437;28;20496;-71
2023/05/10 07:38:13;;;;;;;17.48;15.30;;;13.30;99.90;;;;;;5047143;28;20444;-70
2023/05/10 07:40:40;;;;;;;19.52;16.08;;;13.30;99.90;;;;;;5044890;28;20451;-70
2023/05/10 07:43:08;;;;;;;18.40;14.90;;;13.20;99.90;;;;;;5043553;28;20444;-71
2023/05/10 07:45:35;;;;;;;18.20;15.15;;;13.10;99.90;;;;;;5044555;28;20428;-71
2023/05/10 07:48:02;;;;;;;18.65;14.50;;;13.10;99.90;;;;;;5044888;28;20443;-71
2023/05/10 07:50:29;;;;;;;20.05;16.65;;;13.10;99.90;;;;;;5046188;28;20758;-71
2023/05/10 07:52:56;;;;;;;20.10;16.45;;;13.10;99.90;;;;;;5046735;28;21006;-71
2023/05/10 07:55:23;;;;;;;19.42;15.70;;;13.10;99.90;;;;;;5044453;28;20937;-71
2023/05/10 07:57:49;;;;;;;19.50;16.70;;;13.20;99.90;;;;;;5045694;28;20426;-70
2023/05/10 08:00:20;;;;;;;18.75;15.20;;;13.20;99.90;;;;;;5042924;28;20813;-71
2023/05/10 08:02:47;;;;;;;19.15;15.70;;;13.20;99.90;;;;;;5044660;28;20832;-71
2023/05/10 08:05:14;;;;;;;17.25;14.80;;;13.30;99.90;;;;;;5046331;28;20488;-71
2023/05/10 08:07:42;;;;;;;16.40;14.70;;;13.40;99.90;;;;;;5045650;28;20436;-70
2023/05/10 08:10:11;;;;;;;15.70;14.10;;;13.50;99.90;;;;;;5045284;28;20421;-70
2023/05/10 08:12:37;;;;;;;13.90;12.50;;;13.70;99.90;;;;;;5046194;28;20485;-71
2023/05/10 08:15:05;;;;;;;13.87;12.10;;;13.80;99.90;;;;;;5045330;28;20540;-70
2023/05/10 08:17:33;;;;;;;13.90;12.50;;;13.90;99.90;;;;;;5045044;28;20500;-70
2023/05/10 08:20:00;;;;;;;12.68;11.38;;;14.00;99.90;;;;;;5045761;28;20425;-70
2023/05/10 08:22:27;;;;;;;12.18;10.98;;;14.10;99.90;;;;;;5045871;28;20775;-70
2023/05/10 08:24:54;;;;;;;11.00;10.00;;;14.10;99.90;;;;;;5044434;28;20489;-71
2023/05/10 08:27:20;;;;;;;10.73;9.63;;;14.10;99.90;;;;;;5045203;28;20433;-71
2023/05/10 08:29:47;;;;;;;12.27;9.77;;;14.10;99.90;;;;;;5044578;28;20437;-71
2023/05/10 08:32:14;;;;;;;8.20;7.40;;;14.10;99.90;;;;;;5045508;28;20413;-71
2023/05/10 08:34:42;;;;;;;8.57;7.65;;;14.10;99.90;;;;;;5045393;28;20421;-71
2023/05/10 08:37:10;;;;;;;8.68;7.78;;;14.20;99.90;;;;;;5045899;28;20808;-70
2023/05/10 08:39:37;;;;;;;9.20;8.27;;;14.30;99.90;;;;;;5045056;28;20573;-70
2023/05/10 08:42:05;;;;;;;9.10;7.50;;;14.30;99.90;;;;;;5044690;28;20787;-71
2023/05/10 08:44:35;;;;;;;13.23;9.10;;;14.10;99.90;;;;;;5044395;28;20460;-71
2023/05/10 08:47:05;;;;;;;13.23;10.40;;;13.80;99.90;;;;;;5031848;28;20527;-71
2023/05/10 08:49:33;;;;;;;13.68;11.90;;;13.60;99.90;;;;;;5045366;28;20455;-71
2023/05/10 08:52:05;;;;;;;16.35;11.65;;;13.40;99.90;;;;;;5046094;28;20883;-70
2023/05/10 08:54:33;;;;;;;17.20;12.35;;;13.40;99.90;;;;;;5045947;28;20479;-70
2023/05/10 08:56:59;;;;;;;15.60;11.50;;;13.50;99.90;;;;;;5044307;28;20460;-70
2023/05/10 08:59:26;;;;;;;11.88;10.50;;;13.50;99.90;;;;;;5044031;28;20429;-70
2023/05/10 09:01:55;;;;;;;14.15;10.88;;;13.50;99.90;;;;;;5044346;28;20950;-70
2023/05/10 09:04:22;;;;;;;13.27;11.73;;;13.50;99.90;;;;;;5045683;28;20452;-71
2023/05/10 09:06:49;;;;;;;12.95;10.75;;;13.50;99.90;;;;;;5045744;28;20417;-70
2023/05/10 09:09:18;;;;;;;13.52;10.68;;;13.50;99.90;;;;;;5044265;28;20906;-70
2023/05/10 09:11:45;;;;;;;12.85;11.45;;;13.50;99.90;;;;;;5043467;28;20429;-70
2023/05/10 09:14:13;;;;;;;14.18;11.77;;;13.50;99.90;;;;;;5043881;28;20875;-70
2023/05/10 09:16:40;;;;;;;11.68;10.48;;;13.70;99.90;;;;;;5031658;28;20437;-70
2023/05/10 09:19:08;;;;;;;12.10;10.85;;;13.80;99.90;;;;;;5044982;28;20425;-70
2023/05/10 09:21:36;;;;;;;12.23;10.90;;;13.80;99.90;;;;;;5045214;28;20444;-71
2023/05/10 09:24:04;;;;;;;11.27;10.07;;;14.00;99.90;;;;;;5044182;28;20433;-70
2023/05/10 09:26:33;;;;;;;11.43;10.23;;;14.10;99.90;;;;;;5044737;28;20868;-70
2023/05/10 09:29:02;;;;;;;12.10;10.90;;;14.10;99.90;;;;;;5042167;28;20426;-69
2023/05/10 09:31:44;;;;;;;12.60;11.40;;;14.20;99.90;;;;;;5044821;28;20530;-70
2023/05/10 09:34:11;;;;;;;11.50;10.40;;;14.30;99.90;;;;;;5044655;28;20424;-70
2023/05/10 09:36:50;;;;;;;11.27;10.35;;;14.40;99.90;;;;;;5044976;28;20496;-70
2023/05/10 09:39:17;;;;;;;11.02;10.00;;;14.40;99.90;;;;;;5046085;28;20409;-70
2023/05/10 09:41:45;;;;;;;11.10;10.00;;;14.40;99.90;;;;;;5043764;28;20936;-70
2023/05/10 09:44:12;;;;;;;11.82;10.30;;;14.10;99.90;;;;;;5041361;28;20428;-70
2023/05/10 09:46:39;;;;;;;12.07;10.88;;;13.80;99.90;;;;;;5043613;28;20462;-69
2023/05/10 09:49:06;;;;;;;11.88;10.60;;;13.60;99.90;;;;;;5044214;28;20520;-70
2023/05/10 09:51:33;;;;;;;12.77;11.40;;;13.40;99.90;;;;;;5043299;28;20428;-69
2023/05/10 09:54:15;;;;;;;14.10;12.52;;;13.20;99.90;;;;;;5036006;28;20417;-69
2023/05/10 09:56:43;;;;;;;13.68;12.20;;;13.20;99.90;;;;;;5034665;28;20446;-71
2023/05/10 09:59:12;;;;;;;15.65;12.90;;;13.20;99.90;;;;;;5041424;28;20451;-70
2023/05/10 10:01:40;;;;;;;15.80;14.00;;;13.20;99.90;;;;;;5043865;28;20433;-70
2023/05/10 10:04:09;;;;;;;17.83;14.73;;;13.30;99.90;;;;;;5044040;28;20568;-69
2023/05/10 10:06:39;;;;;;;17.13;13.80;;;13.50;99.90;;;;;;5044842;28;20414;-70
2023/05/10 10:09:06;;;;;;;14.77;13.15;;;13.70;99.90;;;;;;5043528;28;20532;-70
2023/05/10 10:11:35;;;;;;;14.70;13.20;;;14.00;99.90;;;;;;5041881;28;20441;-71
2023/05/10 10:14:02;;;;;;;13.83;12.43;;;14.30;99.90;;;;;;5043868;28;20503;-72
2023/05/10 10:16:32;;;;;;;12.38;11.07;;;14.60;99.90;;;;;;5031053;28;20870;-72
2023/05/10 10:18:59;;;;;;;10.73;9.32;;;15.00;99.90;;;;;;5043981;28;20493;-70
2023/05/10 10:21:26;;;;;;;9.80;8.90;;;15.30;99.90;;;;;;5044221;28;20421;-70
2023/05/10 10:23:53;;;;;;;9.45;8.55;;;15.50;99.90;;;;;;5044079;28;20891;-70
2023/05/10 10:26:21;;;;;;;8.68;7.78;;;15.60;99.90;;;;;;5045609;28;20424;-70
2023/05/10 10:28:52;;;;;;;8.50;7.60;;;15.80;98.70;;;;;;5051020;28;20502;-70
2023/05/10 10:31:28;;;;;;;7.90;7.10;;;16.00;99.40;;;;;;5044851;28;20471;-72
2023/05/10 10:34:04;;;;;;;8.75;7.82;;;16.30;98.70;;;;;;5044053;28;20436;-70
2023/05/10 10:36:33;;;;;;;8.35;7.50;;;16.50;97.70;;;;;;5044138;28;20424;-70
2023/05/10 10:39:01;;;;;;;8.55;7.55;;;16.80;97.70;;;;;;5042211;28;20436;-73
2023/05/10 10:41:30;;;;;;;9.13;8.10;;;17.10;97.00;;;;;;5042080;28;20433;-72
2023/05/10 10:44:29;;;;;;;8.40;7.60;;;17.50;96.40;;;;;;5043612;28;20512;-72
2023/05/10 10:47:05;;;;;;;7.80;7.10;;;17.70;93.90;;;;;;5043929;28;20415;-73
2023/05/10 10:49:34;;;;;;;8.10;7.30;;;17.80;93.50;;;;;;5043229;28;20433;-73
2023/05/10 10:52:22;;;;;;;7.85;7.05;;;17.80;92.50;;;;;;5043387;28;20437;-71
2023/05/10 10:54:53;;;;;;;8.40;7.60;;;17.70;91.80;;;;;;5041820;28;20443;-72
2023/05/10 10:57:22;;;;;;;7.35;6.65;;;17.50;91.40;;;;;;5035094;28;20728;-72
2023/05/10 10:59:49;;;;;;;8.20;7.40;;;17.40;91.70;;;;;;5043232;28;21324;-71
2023/05/10 11:02:34;;;;;;;8.40;7.60;;;17.30;91.30;;;;;;5043373;28;20413;-72
2023/05/10 11:05:46;;;;;;;8.90;8.00;;;17.30;91.30;;;;;;5042649;28;20526;-72
2023/05/10 11:08:21;;;;;;;7.85;7.10;;;17.40;91.40;;;;;;5044372;28;20851;-72
2023/05/10 11:11:06;;;;;;;8.40;7.22;;;17.30;91.20;;;;;;5047379;28;20515;-72
2023/05/10 11:13:35;;;;;;;6.40;5.80;;;17.30;91.10;;;;;;5044121;28;20436;-72
2023/05/10 11:16:12;;;;;;;6.13;5.53;;;17.20;91.10;;;;;;5036571;28;20604;-71
2023/05/10 11:18:39;;;;;;;6.30;5.70;;;16.90;91.70;;;;;;5049818;28;20429;-72
2023/05/10 11:21:10;;;;;;;5.70;5.20;;;16.90;92.30;;;;;;5048953;28;20519;-72
2023/05/10 11:23:50;;;;;;;6.85;6.25;;;17.00;91.90;;;;;;5048084;28;20412;-71
2023/05/10 11:26:17;;;;;;;5.45;4.95;;;17.00;92.40;;;;;;5044009;28;20432;-71
2023/05/10 11:28:44;;;;;;;3.85;3.55;;;16.80;91.80;;;;;;5049519;28;20459;-71
2023/05/10 11:31:12;;;;;;;4.00;3.70;;;16.60;91.60;;;;;;5036153;28;20425;-71
2023/05/10 11:33:44;;;;;;;4.20;3.80;;;16.40;92.00;;;;;;5049074;28;20515;-71
2023/05/10 11:36:15;;;;;;;4.55;4.15;;;16.30;92.90;;;;;;5041935;28;20459;-71
2023/05/10 11:38:41;;;;;;;4.50;3.67;;;16.30;93.70;;;;;;5045525;28;20437;-71
2023/05/10 11:41:10;;;;;;;4.30;3.90;;;16.50;93.90;;;;;;5046631;28;20468;-71
2023/05/10 11:43:38;;;;;;;5.10;3.80;;;16.80;92.50;;;;;;5044697;28;20471;-72
2023/05/10 11:46:05;;;;;;;3.85;3.55;;;16.80;92.10;;;;;;5046408;28;20485;-72
2023/05/10 11:48:32;;;;;;;3.58;3.28;;;16.70;91.70;;;;;;5048634;28;20436;-71
2023/05/10 11:50:59;;;;;;;3.38;3.13;;;16.50;91.00;;;;;;5040679;28;20417;-72
2023/05/10 11:53:28;;;;;;;3.40;3.10;;;16.20;92.20;;;;;;5045098;28;20582;-72
2023/05/10 11:55:55;;;;;;;3.60;3.10;;;16.00;91.40;;;;;;5044984;28;20891;-71
2023/05/10 11:58:23;;;;;;;3.10;2.80;;;15.90;91.80;;;;;;5040137;28;20502;-72
2023/05/10 12:00:50;;;;;;;3.90;2.90;;;15.90;91.60;;;;;;5039699;28;20876;-72
2023/05/10 12:03:18;;;;;;;3.10;2.80;;;16.00;91.30;;;;;;5035664;28;20477;-72
2023/05/10 12:05:44;;;;;;;3.30;3.00;;;16.30;91.80;;;;;;5043413;28;20451;-72
2023/05/10 12:08:13;;;;;;;3.88;3.05;;;16.50;90.80;;;;;;5038274;28;20426;-72
2023/05/10 12:10:41;;;;;;;3.53;2.65;;;16.70;89.70;;;;;;5043451;28;20510;-72
2023/05/10 12:13:13;;;;;;;2.80;2.60;;;16.70;89.00;;;;;;5041208;28;20481;-72
2023/05/10 12:15:40;;;;;;;2.72;2.53;;;16.80;88.30;;;;;;5038001;28;20454;-71
2023/05/10 12:18:10;;;;;;;3.03;2.50;;;16.80;89.20;;;;;;5042826;28;20445;-75
2023/05/10 12:20:37;;;;;;;2.90;2.70;;;16.80;90.10;;;;;;5036264;28;20447;-71
2023/05/10 12:23:05;;;;;;;2.53;2.33;;;16.90;89.70;;;;;;5038482;28;20443;-72
2023/05/10 12:25:33;;;;;;;3.08;2.78;;;17.10;87.20;;;;;;5051010;28;20993;-72
2023/05/10 12:28:04;;;;;;;2.55;2.30;;;17.40;86.00;;;;;;5044491;28;20436;-72
2023/05/10 12:30:32;;;;;;;2.47;2.10;;;17.70;83.00;;;;;;5038796;28;20923;-72
2023/05/10 12:33:03;;;;;;;2.20;2.00;;;17.90;80.50;;;;;;5043107;28;20417;-72
2023/05/10 12:35:34;;;;;;;2.53;2.33;;;18.10;78.30;;;;;;5032890;28;20425;-71
2023/05/10 12:38:00;;;;;;;2.40;2.20;;;18.20;78.50;;;;;;5037171;28;20426;-72
2023/05/10 12:40:27;;;;;;;2.80;2.60;;;18.30;79.60;;;;;;5044841;28;20432;-72